Berlin, New Hampshire
Current Conditions -  °F | °C
As of 5:52 AM on Monday 20 Oct 2014 (Local Time) from KBML Reporting Station
Overcast Overcast  
Wind Chill: 31°   Ceiling: 3500
Heat Index: 35°   Visibility: 10mi
Dew Point: 23°   Wind: 5mph
Humidity: 61%   Direction: 300°WNW
Pressure: 29.93"   Gusts: NA
Location:  44.47°N, 71.18°W
Report Text: KBML 200952Z AUTO 30004KT 10SM OVC035 02/M05 A2993 RMK AO2 SLP146 T00171050
Loading
Personal Weather Stations






























Interactive Weather Map
Tropical Storm Tracking
New forecast layout! Learn more

10-Day Weather Forecast

Advertisements
Track Severe Weather on mobile